»·PEaware :: N2MZ KSAN-54CL

N2MZ :: KSAN-54CL

FLIGHT INFORMATION

Flight Status: Arrived
Operator: Privately registered:
United States
More flights under this callsign
Pilot: Mike Z. (25595)
Aircraft: CESSNA 172 SKYHAWK
(C172)
More flights by this aircraft type
Origin: KSAN San Diego Intl-Lindbergh
United States
Destination: 54CL Lake Riverside Estates
United States
More flights between these airports :: More routes between these airports
Route: +
File this flight plan on PilotEdge
Remarks:
Altitude:
(Current/Filed)
5,000ft
Speed:
(Current/Filed)
110kts
Departed: 19-Oct-19 08:43 AM
Arrived: 19-Oct-19 09:29 AM
Distance/Time
Traveled:
51nm/0:45
Distance/Time
To Go:
Arrived

Flight Plot

Page will automatically refresh every two minutes.

Flight plan parsing failed; only flown route is shown


Map Options




Map Legend


Flown Route
Filed Route
Departure Airport
Arrival Airport
Navaid (VOR, NDB)
Fix

Horizontal Profiles

Position Reports

Time Latitude Longitude Heading Altitude Ground
Speed
19-Oct-19 08:31 32.732420 -117.176641 194 22ft 0kts
19-Oct-19 08:32 32.732420 -117.176641 193 22ft 0kts
19-Oct-19 08:33 32.732420 -117.176641 193 22ft 0kts
19-Oct-19 08:34 32.732420 -117.176641 193 22ft 0kts
19-Oct-19 08:35 32.732420 -117.176641 193 22ft 0kts
19-Oct-19 08:36 32.732420 -117.176641 193 22ft 0kts
19-Oct-19 08:37 32.732420 -117.176641 193 22ft 0kts
19-Oct-19 08:38 32.732420 -117.176641 193 22ft 0kts
19-Oct-19 08:39 32.730707 -117.175246 298 21ft 8kts
19-Oct-19 08:40 32.730927 -117.175212 148 22ft 0kts
19-Oct-19 08:41 32.730927 -117.175212 148 22ft 0kts
19-Oct-19 08:42 32.730178 -117.175100 202 20ft 20kts
19-Oct-19 08:43 32.734805 -117.194285 300 473ft 76kts
19-Oct-19 08:44 32.752956 -117.209299 327 1199ft 80kts
19-Oct-19 08:45 32.772314 -117.224057 326 1837ft 90kts
19-Oct-19 08:46 32.789738 -117.237381 327 2326ft 95kts
19-Oct-19 08:46 32.807137 -117.250643 327 2983ft 77kts
19-Oct-19 08:48 32.826260 -117.257504 7 3529ft 73kts
19-Oct-19 08:49 32.837778 -117.249084 50 3047ft 90kts
19-Oct-19 08:50 32.856531 -117.234571 33 3753ft 69kts
19-Oct-19 08:50 32.869720 -117.223888 32 4155ft 68kts
19-Oct-19 08:51 32.888426 -117.208758 34 4502ft 94kts
19-Oct-19 08:53 32.916050 -117.186160 31 5052ft 98kts
19-Oct-19 08:53 32.933240 -117.173971 30 5620ft 80kts
19-Oct-19 08:54 32.953020 -117.161717 25 6121ft 80kts
19-Oct-19 08:55 32.973496 -117.149955 25 6581ft 83kts
19-Oct-19 08:56 32.994217 -117.139469 18 7068ft 80kts
19-Oct-19 08:57 33.015514 -117.129362 24 7477ft 85kts
19-Oct-19 08:58 33.036486 -117.117145 27 7934ft 80kts
19-Oct-19 08:59 33.058555 -117.103229 28 8013ft 102kts
19-Oct-19 09:00 33.085462 -117.085730 28 8009ft 115kts
19-Oct-19 09:01 33.113414 -117.066835 29 8008ft 117kts
19-Oct-19 09:02 33.142134 -117.048570 28 8008ft 116kts
19-Oct-19 09:03 33.170084 -117.030223 28 8007ft 113kts
19-Oct-19 09:04 33.197414 -117.012214 28 8008ft 111kts
19-Oct-19 09:05 33.224392 -116.994422 28 8008ft 110kts
19-Oct-19 09:06 33.251333 -116.976641 28 8008ft 110kts
19-Oct-19 09:07 33.278287 -116.958838 28 8008ft 110kts
19-Oct-19 09:08 33.305196 -116.941052 28 8008ft 110kts
19-Oct-19 09:09 33.332080 -116.923270 28 8008ft 110kts
19-Oct-19 09:10 33.361007 -116.904098 28 7636ft 124kts
19-Oct-19 09:11 33.390464 -116.884567 28 7129ft 118kts
19-Oct-19 09:12 33.419557 -116.865279 28 6529ft 116kts
19-Oct-19 09:13 33.447628 -116.846659 28 6028ft 115kts
19-Oct-19 09:14 33.475207 -116.828348 28 5522ft 109kts
19-Oct-19 09:15 33.501409 -116.811044 29 4777ft 119kts
19-Oct-19 09:16 33.508258 -116.783116 104 4268ft 66kts
19-Oct-19 09:17 33.501138 -116.762467 104 4650ft 69kts
19-Oct-19 09:18 33.513431 -116.770631 292 4410ft 71kts
19-Oct-19 09:19 33.520341 -116.792388 296 3739ft 85kts
19-Oct-19 09:20 33.527021 -116.816248 205 4190ft 80kts
19-Oct-19 09:21 33.505835 -116.817881 112 4251ft 89kts
19-Oct-19 09:22 33.496972 -116.791821 121 4660ft 93kts
19-Oct-19 09:23 33.482270 -116.767329 127 5088ft 87kts
19-Oct-19 09:24 33.487238 -116.749163 33 5085ft 83kts
19-Oct-19 09:25 33.505513 -116.748979 309 4905ft 77kts
19-Oct-19 09:26 33.514054 -116.772245 291 4022ft 73kts
19-Oct-19 09:27 33.520801 -116.793426 290 3402ft 54kts
19-Oct-19 09:28 33.522585 -116.799433 237 3388ft 9kts
19-Oct-19 09:29 33.522345 -116.799625 185 3387ft 0kts
19-Oct-19 09:30 33.522345 -116.799625 185 3387ft 0kts
19-Oct-19 09:31 33.522345 -116.799625 185 3387ft 0kts
19-Oct-19 09:32 33.522345 -116.799625 185 3387ft 0kts
19-Oct-19 09:33 33.522345 -116.799625 185 3387ft 0kts
19-Oct-19 09:34 33.522345 -116.799625 185 3387ft 0kts
19-Oct-19 09:35 33.522345 -116.799625 185 3387ft 0kts
19-Oct-19 09:36 33.522345 -116.799625 185 3387ft 0kts
19-Oct-19 09:37 33.522345 -116.799625 185 3387ft 0kts
19-Oct-19 09:38 33.522345 -116.799625 185 3387ft 0kts
19-Oct-19 09:39 33.522345 -116.799625 185 3387ft 0kts
19-Oct-19 09:40 33.522345 -116.799625 185 3387ft 0kts
19-Oct-19 09:41 33.522345 -116.799625 185 3387ft 0kts

Navigation Log

Ident Type
Flight plan parsing failed, navigation log unavailable